createdAt,value
2019-04-05T00:01:20.683Z,51.96
2019-04-05T00:07:01.394Z,51.78
2019-04-05T00:09:51.433Z,51.94
2019-04-05T00:12:40.539Z,52.07
2019-04-05T00:15:31.708Z,52.39
2019-04-05T00:18:02.850Z,52.57
2019-04-05T00:20:51.527Z,52.65
2019-04-05T00:23:22.724Z,52.42
2019-04-05T00:25:52.899Z,52.72
2019-04-05T00:28:42.137Z,52.92
2019-04-05T00:31:14.000Z,53.03
2019-04-05T00:33:47.530Z,52.71
2019-04-05T00:36:37.549Z,52.52
2019-04-05T00:42:17.751Z,52.31
2019-04-05T00:44:47.865Z,52.18
2019-04-05T00:47:37.008Z,52.02
2019-04-05T00:50:17.431Z,52.24
2019-04-05T00:53:08.388Z,52.26
2019-04-05T00:55:57.398Z,52.41
2019-04-05T00:58:48.416Z,52.79
2019-04-05T01:01:18.621Z,53.29
2019-04-05T01:03:48.852Z,53.68
2019-04-05T01:06:21.275Z,53.87
2019-04-05T01:09:30.312Z,54.10
2019-04-05T01:12:00.440Z,54.14
2019-04-05T01:14:30.562Z,53.95
2019-04-05T01:17:25.114Z,54.15
2019-04-05T01:20:15.392Z,54.17
2019-04-05T01:23:06.268Z,54.17
2019-04-05T01:25:37.173Z,53.67
2019-04-05T01:28:07.623Z,53.46
2019-04-05T01:30:56.720Z,53.52
2019-04-05T01:33:45.848Z,53.46
2019-04-05T01:39:18.974Z,52.84
2019-04-05T01:41:52.149Z,53.08
2019-04-05T01:44:24.159Z,53.09
2019-04-05T01:47:14.156Z,52.99
2019-04-05T01:50:03.270Z,52.81
2019-04-05T01:52:52.423Z,52.48
2019-04-05T01:55:23.391Z,52.87
2019-04-05T01:58:12.260Z,52.52
2019-04-05T02:00:42.404Z,51.82
2019-04-05T02:03:12.519Z,51.65
2019-04-05T02:09:02.808Z,50.10
2019-04-05T02:14:42.640Z,52.20
2019-04-05T02:17:12.766Z,52.20
2019-04-05T02:19:44.574Z,51.41
2019-04-05T02:22:33.676Z,51.37
2019-04-05T02:25:03.777Z,51.71
2019-04-05T02:30:14.017Z,52.04
2019-04-05T02:33:03.168Z,51.96
2019-04-05T02:38:34.124Z,52.03
2019-04-05T02:41:23.233Z,52.03
2019-04-05T02:44:12.290Z,51.71
2019-04-05T02:47:01.337Z,50.89
2019-04-05T02:49:42.020Z,50.25
2019-04-05T02:52:31.976Z,49.40
2019-04-05T02:55:02.153Z,49.74
2019-04-05T02:57:32.304Z,49.82
2019-04-05T03:00:24.226Z,49.78
2019-04-05T03:03:15.728Z,50.03
2019-04-05T03:06:06.781Z,50.58
2019-04-05T03:08:38.293Z,50.56
2019-04-05T03:11:10.523Z,50.89
2019-04-05T03:14:01.049Z,50.97
2019-04-05T03:19:52.922Z,50.97
2019-04-05T03:22:41.968Z,51.28
2019-04-05T03:25:31.109Z,51.14
2019-04-05T03:31:00.977Z,48.41
2019-04-05T03:33:31.153Z,47.28
2019-04-05T03:36:01.227Z,46.93
2019-04-05T03:41:32.747Z,49.62
2019-04-05T03:44:23.110Z,49.62
2019-04-05T03:46:56.781Z,49.89
2019-04-05T03:49:44.255Z,48.65
2019-04-05T03:52:33.369Z,49.54
2019-04-05T03:55:03.658Z,49.98
2019-04-05T03:57:36.089Z,50.53
2019-04-05T04:00:25.302Z,50.35
2019-04-05T04:02:55.439Z,50.73
2019-04-05T04:05:28.518Z,50.80
2019-04-05T04:08:23.289Z,50.20
2019-04-05T04:13:51.752Z,49.73
2019-04-05T04:16:21.935Z,48.85
2019-04-05T04:18:52.036Z,48.33
2019-04-05T04:21:52.816Z,49.10
2019-04-05T04:24:23.017Z,48.88
2019-04-05T04:26:53.213Z,48.63
2019-04-05T04:32:31.287Z,48.28
2019-04-05T04:35:01.598Z,48.76
2019-04-05T04:37:31.762Z,48.75
2019-04-05T04:40:20.888Z,47.92
2019-04-05T04:43:11.741Z,47.57
2019-04-05T04:46:00.838Z,47.68
2019-04-05T04:48:30.896Z,47.68
2019-04-05T04:51:00.950Z,47.82
2019-04-05T04:53:50.070Z,47.16
2019-04-05T04:56:20.243Z,46.56
2019-04-05T04:58:52.348Z,46.77
2019-04-05T05:07:24.928Z,48.14
2019-04-05T05:10:15.599Z,48.23
2019-04-05T05:13:04.820Z,48.79
2019-04-05T05:15:36.815Z,48.85
2019-04-05T05:18:07.110Z,49.02
2019-04-05T05:23:46.981Z,49.25
2019-04-05T05:26:38.098Z,49.52
2019-04-05T05:32:27.869Z,49.84
2019-04-05T05:38:02.377Z,48.53
2019-04-05T05:40:35.275Z,48.35
2019-04-05T05:46:31.827Z,48.08
2019-04-05T05:49:33.111Z,47.99
2019-04-05T05:52:05.468Z,47.79
2019-04-05T05:55:14.839Z,47.91
2019-04-05T06:07:28.409Z,46.24
2019-04-05T06:13:13.042Z,46.99
2019-04-05T06:15:43.118Z,46.32
2019-04-05T06:18:34.791Z,45.55
2019-04-05T06:21:05.008Z,46.15
2019-04-05T06:23:56.695Z,46.46
2019-04-05T06:26:46.374Z,45.71
2019-04-05T06:29:37.333Z,46.43
2019-04-05T06:32:26.398Z,46.54
2019-04-05T06:35:15.514Z,46.52
2019-04-05T06:38:04.640Z,45.84
2019-04-05T06:40:55.681Z,45.56
2019-04-05T06:43:41.313Z,45.08
2019-04-05T06:46:28.488Z,44.74
2019-04-05T06:48:59.500Z,44.61
2019-04-05T06:54:30.940Z,44.38
2019-04-05T06:57:01.155Z,44.87
2019-04-05T07:00:09.270Z,45.14
2019-04-05T07:03:13.734Z,44.99
2019-04-05T07:06:02.940Z,45.53
2019-04-05T07:08:53.890Z,45.71
2019-04-05T07:12:02.218Z,45.87
2019-04-05T07:24:07.003Z,45.73
2019-04-05T07:26:58.566Z,45.90
2019-04-05T07:30:10.918Z,44.85
2019-04-05T07:33:17.314Z,44.29
2019-04-05T07:35:57.587Z,43.77
2019-04-05T07:38:58.578Z,44.09
2019-04-05T07:41:47.675Z,43.26
2019-04-05T07:44:22.148Z,43.21
2019-04-05T07:47:12.168Z,43.25
2019-04-05T07:53:13.395Z,43.14
2019-04-05T07:59:00.233Z,43.65
2019-04-05T08:01:50.290Z,43.15
2019-04-05T08:05:00.988Z,43.36
2019-04-05T08:08:11.805Z,43.06
2019-04-05T08:11:01.844Z,43.06
2019-04-05T08:16:58.279Z,42.50
2019-04-05T08:19:29.315Z,42.93
2019-04-05T08:24:49.264Z,42.78
2019-04-05T08:33:23.153Z,43.79
2019-04-05T08:36:15.043Z,43.25
2019-04-05T08:41:45.138Z,43.76
2019-04-05T08:44:55.162Z,43.68
2019-04-05T08:47:26.951Z,43.51
2019-04-05T08:50:16.125Z,43.51
2019-04-05T08:52:59.508Z,43.13
2019-04-05T09:01:21.953Z,43.28
2019-04-05T09:07:00.813Z,42.71
2019-04-05T09:09:31.989Z,42.44
2019-04-05T09:12:24.257Z,43.18
2019-04-05T09:15:35.491Z,43.18
2019-04-05T09:21:04.638Z,42.76
2019-04-05T09:23:36.577Z,42.97
2019-04-05T09:26:06.970Z,42.61
2019-04-05T09:28:56.237Z,41.97
2019-04-05T09:31:45.419Z,42.20
2019-04-05T09:40:02.561Z,42.33
2019-04-05T09:42:41.207Z,42.91
2019-04-05T09:46:03.884Z,43.27
2019-04-05T09:51:41.204Z,42.85
2019-04-05T09:57:22.781Z,42.73
2019-04-05T10:03:17.716Z,43.22
2019-04-05T10:06:08.624Z,43.04
2019-04-05T10:12:21.974Z,43.17
2019-04-05T10:15:32.316Z,42.97
2019-04-05T10:18:02.417Z,42.59
2019-04-05T10:24:00.145Z,43.26
2019-04-05T10:29:44.149Z,43.07
2019-04-05T10:35:18.021Z,43.62
2019-04-05T10:37:53.251Z,43.04
2019-04-05T10:40:25.626Z,42.76
2019-04-05T10:45:56.987Z,42.51
2019-04-05T10:51:56.676Z,42.23
2019-04-05T10:55:00.784Z,41.96
2019-04-05T10:58:16.000Z,41.79
2019-04-05T11:01:07.109Z,41.03
2019-04-05T11:12:50.879Z,40.15
2019-04-05T11:16:02.007Z,40.57
2019-04-05T11:19:14.811Z,40.57
2019-04-05T11:21:55.143Z,40.69
2019-04-05T11:24:47.263Z,40.28
2019-04-05T11:27:17.348Z,40.28
2019-04-05T11:33:12.251Z,40.93
2019-04-05T11:35:32.771Z,41.33
2019-04-05T11:38:24.205Z,41.41
2019-04-05T11:41:17.681Z,41.38
2019-04-05T11:44:31.615Z,41.70
2019-04-05T11:47:34.503Z,41.26
2019-04-05T11:54:02.598Z,40.71
2019-04-05T11:59:53.755Z,40.85
2019-04-05T12:02:39.571Z,41.26
2019-04-05T12:05:29.508Z,41.05
2019-04-05T12:08:01.844Z,40.74
2019-04-05T12:19:46.729Z,40.68
2019-04-05T12:22:25.711Z,39.86
2019-04-05T12:28:06.361Z,39.66
2019-04-05T12:30:47.556Z,39.85
2019-04-05T12:33:19.558Z,39.92
2019-04-05T12:36:00.034Z,39.98
2019-04-05T12:38:50.415Z,40.28
2019-04-05T12:41:22.774Z,39.99
2019-04-05T12:44:15.247Z,39.63
2019-04-05T12:50:14.087Z,40.95
2019-04-05T12:53:03.654Z,40.86
2019-04-05T12:55:56.284Z,40.62
2019-04-05T13:04:46.178Z,40.46
2019-04-05T13:13:56.352Z,40.82
2019-04-05T13:19:51.166Z,40.89
2019-04-05T13:28:34.629Z,40.24
2019-04-05T13:34:37.534Z,40.28
2019-04-05T13:37:47.029Z,40.45
2019-04-05T13:41:01.547Z,40.45
2019-04-05T13:46:44.266Z,41.10
2019-04-05T13:50:03.419Z,40.72
2019-04-05T14:01:26.772Z,40.85
2019-04-05T14:04:00.058Z,41.27
2019-04-05T14:09:31.699Z,40.60
2019-04-05T14:12:04.350Z,40.12
2019-04-05T14:15:01.112Z,40.27
2019-04-05T14:23:53.318Z,40.29
2019-04-05T14:29:47.825Z,39.77
2019-04-05T14:32:58.041Z,40.65
2019-04-05T14:35:58.309Z,40.65
2019-04-05T14:38:51.415Z,40.47
2019-04-05T14:41:40.531Z,41.10
2019-04-05T14:44:18.086Z,40.98
2019-04-05T14:47:07.284Z,41.14
2019-04-05T14:56:15.317Z,41.45
2019-04-05T14:59:06.376Z,41.59
2019-04-05T15:04:49.270Z,41.45
2019-04-05T15:07:20.940Z,41.98
2019-04-05T15:13:09.389Z,42.74
2019-04-05T15:18:54.151Z,42.71
2019-04-05T15:21:45.077Z,42.87
2019-04-05T15:27:26.226Z,43.72
2019-04-05T15:30:16.112Z,43.86
2019-04-05T15:39:02.069Z,44.90
2019-04-05T15:41:43.923Z,45.25
2019-04-05T15:44:49.876Z,45.18
2019-04-05T15:53:24.852Z,43.86
2019-04-05T15:59:28.470Z,43.53
2019-04-05T16:02:17.600Z,43.47
2019-04-05T16:07:51.517Z,43.32
2019-04-05T16:10:21.701Z,43.25
2019-04-05T16:13:13.040Z,43.37
2019-04-05T16:15:43.240Z,43.37
2019-04-05T16:21:21.394Z,44.01
2019-04-05T16:27:01.119Z,44.05
2019-04-05T16:29:52.201Z,44.01
2019-04-05T16:32:41.484Z,43.86
2019-04-05T16:35:14.448Z,43.97
2019-04-05T16:41:20.786Z,44.31
2019-04-05T16:44:12.209Z,44.65
2019-04-05T16:50:03.433Z,44.89
2019-04-05T16:56:20.734Z,45.61
2019-04-05T16:58:53.156Z,45.73
2019-04-05T17:02:02.839Z,45.72
2019-04-05T17:04:35.233Z,46.43
2019-04-05T17:07:44.576Z,46.77
2019-04-05T17:10:14.772Z,46.86
2019-04-05T17:13:03.892Z,47.32
2019-04-05T17:18:38.131Z,48.33
2019-04-05T17:24:19.945Z,49.80
2019-04-05T17:27:01.944Z,49.80
2019-04-05T17:29:51.579Z,49.42
2019-04-05T17:33:12.457Z,50.02
2019-04-05T17:35:51.836Z,50.47
2019-04-05T17:38:38.232Z,51.13
2019-04-05T17:41:33.117Z,51.31
2019-04-05T17:44:23.629Z,51.52
2019-04-05T17:53:41.091Z,51.86
2019-04-05T17:56:30.180Z,51.77
2019-04-05T17:59:00.686Z,52.17
2019-04-05T18:04:54.358Z,51.91
2019-04-05T18:07:44.344Z,52.04
2019-04-05T18:16:45.283Z,52.17
2019-04-05T18:19:19.165Z,51.79
2019-04-05T18:22:10.668Z,52.18
2019-04-05T18:24:43.125Z,52.40
2019-04-05T18:27:32.502Z,52.54
2019-04-05T18:30:23.989Z,52.52
2019-04-05T18:33:13.849Z,52.56
2019-04-05T18:35:47.362Z,52.55
2019-04-05T18:38:38.426Z,52.61
2019-04-05T18:41:40.748Z,52.63
2019-04-05T18:44:22.240Z,52.29
2019-04-05T18:47:11.579Z,52.31
2019-04-05T18:50:12.778Z,52.36
2019-04-05T18:55:41.080Z,52.53
2019-04-05T19:01:20.470Z,52.49
2019-04-05T19:03:50.899Z,52.39
2019-04-05T19:06:35.563Z,52.54
2019-04-05T19:09:15.073Z,53.08
2019-04-05T19:12:04.263Z,53.41
2019-04-05T19:18:02.239Z,53.05
2019-04-05T19:23:50.849Z,53.09
2019-04-05T19:26:18.257Z,52.81
2019-04-05T19:29:07.097Z,53.12
2019-04-05T19:49:31.401Z,53.24
2019-04-05T19:52:40.945Z,53.23
2019-04-05T19:55:13.712Z,52.98
2019-04-05T19:57:46.283Z,52.74
2019-04-05T20:03:37.628Z,52.08
2019-04-05T20:12:58.258Z,51.83
2019-04-05T20:18:35.482Z,50.55
2019-04-05T20:21:07.905Z,51.05
2019-04-05T20:24:14.059Z,51.69
2019-04-05T20:29:49.899Z,51.16
2019-04-05T20:32:24.436Z,51.30
2019-04-05T20:38:49.230Z,51.37
2019-04-05T20:41:19.946Z,51.17
2019-04-05T20:44:34.158Z,51.30
2019-04-05T20:57:30.625Z,51.59
2019-04-05T21:06:02.361Z,51.29
2019-04-05T21:08:32.847Z,51.28
2019-04-05T21:11:24.040Z,51.19
2019-04-05T21:14:13.177Z,51.45
2019-04-05T21:16:44.441Z,51.30
2019-04-05T21:19:35.246Z,51.41
2019-04-05T21:22:05.729Z,51.20
2019-04-05T21:27:39.869Z,50.46
2019-04-05T21:30:29.412Z,50.44
2019-04-05T21:33:00.411Z,50.32
2019-04-05T21:36:10.419Z,50.44
2019-04-05T21:39:31.945Z,50.63
2019-04-05T21:42:12.298Z,51.27
2019-04-05T21:45:05.285Z,51.51
2019-04-05T21:47:55.214Z,51.82
2019-04-05T21:53:37.220Z,51.36
2019-04-05T21:56:07.280Z,51.60
2019-04-05T21:59:16.370Z,51.09
2019-04-05T22:05:17.567Z,51.41
2019-04-05T22:07:48.642Z,51.41
2019-04-05T22:10:38.253Z,51.55
2019-04-05T22:13:48.243Z,51.16
2019-04-05T22:16:51.355Z,50.72
2019-04-05T22:19:12.049Z,50.68
2019-04-05T22:21:46.602Z,50.78
2019-04-05T22:24:17.578Z,50.78
2019-04-05T22:27:07.621Z,50.75
2019-04-05T22:29:39.476Z,50.75
2019-04-05T22:32:24.467Z,51.17
2019-04-05T22:35:04.492Z,51.33
2019-04-05T22:37:47.279Z,52.06
2019-04-05T22:43:18.910Z,51.61
2019-04-05T22:45:49.175Z,51.37
2019-04-05T22:48:38.407Z,51.39
2019-04-05T22:51:09.944Z,51.33
2019-04-05T22:53:42.573Z,51.46
2019-04-05T22:59:48.312Z,51.59
2019-04-05T23:02:38.406Z,51.52
2019-04-05T23:05:09.485Z,51.82
2019-04-05T23:10:31.639Z,51.85
2019-04-05T23:13:05.574Z,51.63
2019-04-05T23:18:47.323Z,52.02
2019-04-05T23:21:18.966Z,51.77
2019-04-05T23:23:50.043Z,51.82
2019-04-05T23:29:41.686Z,51.51
2019-04-05T23:32:31.889Z,51.39
2019-04-05T23:35:15.020Z,51.33
2019-04-05T23:37:54.915Z,51.44
2019-04-05T23:40:26.019Z,51.05
2019-04-05T23:43:16.042Z,51.24
2019-04-05T23:45:47.568Z,50.91
2019-04-05T23:51:39.007Z,50.25
2019-04-05T23:54:29.023Z,50.25
2019-04-05T23:57:00.081Z,50.51
2019-04-05T23:59:33.573Z,50.01
